Time;durP1;ratioP1;P1;durP2;ratioP2;P2;SDS_P1;SDS_P2;PMS_P1;PMS_P2;Temp;Humidity;BMP_temperature;BMP_pressure;BME280_temperature;BME280_humidity;BME280_pressure;Samples;Min_cycle;Max_cycle;Signal;HPM_P1;HPM_P2
2023/12/03 00:01:33;;;;;;;8.00;3.42;;;;;;;;;;5049203;28;20119;-73
2023/12/03 00:03:59;;;;;;;4.13;2.90;;;;;;;;;;5036578;28;20033;-72
2023/12/03 00:06:25;;;;;;;5.38;3.10;;;;;;;;;;5042426;28;20478;-73
2023/12/03 00:08:51;;;;;;;6.63;3.55;;;;;;;;;;5043524;28;20473;-72
2023/12/03 00:11:17;;;;;;;4.05;3.22;;;;;;;;;;5048545;28;20098;-72
2023/12/03 00:13:43;;;;;;;5.53;3.22;;;;;;;;;;5022754;28;20040;-72
2023/12/03 00:16:09;;;;;;;6.25;2.97;;;;;;;;;;5028733;28;20036;-73
2023/12/03 00:18:35;;;;;;;4.15;3.10;;;;;;;;;;5052779;28;20041;-73
2023/12/03 00:21:02;;;;;;;4.47;2.92;;;;;;;;;;5061272;28;20474;-73
2023/12/03 00:23:28;;;;;;;7.28;2.72;;;;;;;;;;5042466;28;20041;-74
2023/12/03 00:25:54;;;;;;;3.90;3.20;;;;;;;;;;5045429;28;20044;-72
2023/12/03 00:28:20;;;;;;;5.55;2.60;;;;;;;;;;5055200;28;20042;-72
2023/12/03 00:30:46;;;;;;;7.32;2.53;;;;;;;;;;5035396;28;20106;-72
2023/12/03 00:33:12;;;;;;;3.95;2.60;;;;;;;;;;5045136;28;20487;-73
2023/12/03 00:35:40;;;;;;;6.28;2.85;;;;;;;;;;5031111;28;20106;-73
2023/12/03 00:38:06;;;;;;;2.90;2.60;;;;;;;;;;5034583;28;20037;-73
2023/12/03 00:40:32;;;;;;;5.18;3.05;;;;;;;;;;5031692;28;20034;-73
2023/12/03 00:42:58;;;;;;;3.08;2.63;;;;;;;;;;5034752;28;20037;-73
2023/12/03 00:45:24;;;;;;;4.40;2.90;;;;;;;;;;5045035;28;20058;-72
2023/12/03 00:47:50;;;;;;;5.90;2.70;;;;;;;;;;5030189;28;20033;-73
2023/12/03 00:50:17;;;;;;;3.17;2.83;;;;;;;;;;5020104;28;20033;-74
2023/12/03 00:52:43;;;;;;;4.30;2.75;;;;;;;;;;5038860;28;20109;-72
2023/12/03 00:55:09;;;;;;;3.30;2.97;;;;;;;;;;5039151;28;20064;-73
2023/12/03 00:57:35;;;;;;;4.20;3.38;;;;;;;;;;5048399;28;20029;-73
2023/12/03 01:00:01;;;;;;;5.05;3.15;;;;;;;;;;5049870;28;20752;-73
2023/12/03 01:02:27;;;;;;;3.85;3.40;;;;;;;;;;5049670;28;20573;-72
2023/12/03 01:04:53;;;;;;;4.20;2.95;;;;;;;;;;5046690;28;20124;-72
2023/12/03 01:07:19;;;;;;;3.38;2.65;;;;;;;;;;5048564;28;20048;-72
2023/12/03 01:09:46;;;;;;;3.22;2.90;;;;;;;;;;5046625;28;20056;-73
2023/12/03 01:12:12;;;;;;;4.65;3.08;;;;;;;;;;5036328;28;20364;-73
2023/12/03 01:14:38;;;;;;;4.03;2.70;;;;;;;;;;5045180;28;20034;-73
2023/12/03 01:17:04;;;;;;;4.15;2.65;;;;;;;;;;5044304;28;20029;-72
2023/12/03 01:19:30;;;;;;;6.72;2.90;;;;;;;;;;5046645;28;20040;-71
2023/12/03 01:21:56;;;;;;;20.92;3.83;;;;;;;;;;5050362;28;20112;-74
2023/12/03 01:24:22;;;;;;;3.80;3.28;;;;;;;;;;5056808;28;20033;-74
2023/12/03 01:26:48;;;;;;;4.50;2.85;;;;;;;;;;5055605;28;20033;-74
2023/12/03 01:29:14;;;;;;;3.58;3.03;;;;;;;;;;5046369;28;20038;-73
2023/12/03 01:31:41;;;;;;;4.05;2.90;;;;;;;;;;5052900;28;20029;-73
2023/12/03 01:34:07;;;;;;;8.05;3.25;;;;;;;;;;5034552;28;20471;-72
2023/12/03 01:36:33;;;;;;;5.68;3.28;;;;;;;;;;5034110;28;20034;-72
2023/12/03 01:38:59;;;;;;;5.18;2.80;;;;;;;;;;5050346;28;20037;-72
2023/12/03 01:41:25;;;;;;;6.10;3.50;;;;;;;;;;5051460;28;20072;-72
2023/12/03 01:43:52;;;;;;;4.70;3.10;;;;;;;;;;5035889;28;20037;-73
2023/12/03 01:46:20;;;;;;;5.13;3.20;;;;;;;;;;5047264;28;20067;-73
2023/12/03 01:48:46;;;;;;;4.50;3.22;;;;;;;;;;5043950;28;20041;-72
2023/12/03 01:51:12;;;;;;;5.35;2.97;;;;;;;;;;5045065;28;20033;-72
2023/12/03 01:53:39;;;;;;;8.63;3.63;;;;;;;;;;5040289;28;20025;-72
2023/12/03 01:56:06;;;;;;;4.63;3.38;;;;;;;;;;5042222;28;20453;-72
2023/12/03 01:58:32;;;;;;;7.20;3.08;;;;;;;;;;5053171;28;20485;-72
2023/12/03 02:00:58;;;;;;;23.25;4.93;;;;;;;;;;5043025;28;20033;-73
2023/12/03 02:03:24;;;;;;;4.40;3.35;;;;;;;;;;5049615;28;20037;-73
2023/12/03 02:06:06;;;;;;;3.80;3.10;;;;;;;;;;5048657;28;20033;-73
2023/12/03 02:08:33;;;;;;;5.60;3.40;;;;;;;;;;5032792;28;20029;-74
2023/12/03 02:10:59;;;;;;;4.32;3.08;;;;;;;;;;5032941;28;20383;-73
2023/12/03 02:13:27;;;;;;;4.35;3.25;;;;;;;;;;5043788;28;20017;-73
2023/12/03 02:15:53;;;;;;;4.45;3.35;;;;;;;;;;5040853;28;20471;-72
2023/12/03 02:18:20;;;;;;;4.03;3.53;;;;;;;;;;5038844;28;20069;-73
2023/12/03 02:20:46;;;;;;;5.15;3.72;;;;;;;;;;5044516;28;20025;-73
2023/12/03 02:23:13;;;;;;;3.92;3.42;;;;;;;;;;5040371;28;20028;-72
2023/12/03 02:25:39;;;;;;;5.00;3.72;;;;;;;;;;5052112;28;20040;-73
2023/12/03 02:28:06;;;;;;;4.40;3.40;;;;;;;;;;5050224;28;20041;-72
2023/12/03 02:30:32;;;;;;;4.75;3.25;;;;;;;;;;5039762;28;20060;-72
2023/12/03 02:32:58;;;;;;;5.13;3.25;;;;;;;;;;5055214;28;20046;-72
2023/12/03 02:35:24;;;;;;;4.43;3.50;;;;;;;;;;5051042;28;20119;-72
2023/12/03 02:37:50;;;;;;;5.75;4.13;;;;;;;;;;5043817;28;20029;-72
2023/12/03 02:40:16;;;;;;;3.92;3.25;;;;;;;;;;5032476;28;20021;-73
2023/12/03 02:42:42;;;;;;;5.80;3.83;;;;;;;;;;5030932;28;20040;-72
2023/12/03 02:45:09;;;;;;;4.78;3.90;;;;;;;;;;5046747;28;20033;-72
2023/12/03 02:47:35;;;;;;;6.10;3.97;;;;;;;;;;5050324;28;20143;-72
2023/12/03 02:50:01;;;;;;;5.78;4.30;;;;;;;;;;5038170;28;20040;-73
2023/12/03 02:52:27;;;;;;;6.07;3.80;;;;;;;;;;5038481;28;20051;-72
2023/12/03 02:54:53;;;;;;;6.40;4.47;;;;;;;;;;5042718;28;20037;-73
2023/12/03 02:57:19;;;;;;;6.03;4.43;;;;;;;;;;5059443;28;20029;-73
2023/12/03 02:59:46;;;;;;;6.80;4.15;;;;;;;;;;5050289;28;20044;-73
2023/12/03 03:02:12;;;;;;;5.85;3.58;;;;;;;;;;5031704;28;20425;-73
2023/12/03 03:04:38;;;;;;;5.40;3.67;;;;;;;;;;5055288;28;20414;-72
2023/12/03 03:07:04;;;;;;;6.00;4.00;;;;;;;;;;5046444;28;20115;-73
2023/12/03 03:09:30;;;;;;;5.25;3.47;;;;;;;;;;5044648;28;20044;-73
2023/12/03 03:11:57;;;;;;;5.70;4.28;;;;;;;;;;5031968;28;20029;-72
2023/12/03 03:14:23;;;;;;;5.57;3.90;;;;;;;;;;5035275;28;20072;-72
2023/12/03 03:16:50;;;;;;;4.00;3.45;;;;;;;;;;5046349;28;20108;-72
2023/12/03 03:19:16;;;;;;;5.32;3.92;;;;;;;;;;5038931;28;20110;-72
2023/12/03 03:21:42;;;;;;;5.72;4.47;;;;;;;;;;5034898;28;20059;-72
2023/12/03 03:24:08;;;;;;;6.82;3.83;;;;;;;;;;5036505;28;20694;-74
2023/12/03 03:26:34;;;;;;;4.70;3.42;;;;;;;;;;5013874;28;20041;-73
2023/12/03 03:29:00;;;;;;;5.75;4.18;;;;;;;;;;5045241;28;20025;-72
2023/12/03 03:31:26;;;;;;;7.15;3.38;;;;;;;;;;5035696;28;20028;-73
2023/12/03 03:33:52;;;;;;;4.40;3.50;;;;;;;;;;5048466;28;20025;-71
2023/12/03 03:36:18;;;;;;;4.82;3.45;;;;;;;;;;5036548;28;20033;-72
2023/12/03 03:38:45;;;;;;;7.63;3.97;;;;;;;;;;5051360;28;20029;-72
2023/12/03 03:41:11;;;;;;;4.47;3.60;;;;;;;;;;5040047;28;20083;-72
2023/12/03 03:43:37;;;;;;;4.45;3.55;;;;;;;;;;5031355;28;20029;-73
2023/12/03 03:46:03;;;;;;;4.13;3.35;;;;;;;;;;5047723;28;20039;-72
2023/12/03 03:48:30;;;;;;;5.40;3.75;;;;;;;;;;5032448;28;20036;-72
2023/12/03 03:50:56;;;;;;;4.78;3.85;;;;;;;;;;5054625;28;20037;-72
2023/12/03 03:53:22;;;;;;;5.82;4.00;;;;;;;;;;5033182;28;20033;-72
2023/12/03 03:55:48;;;;;;;5.22;4.32;;;;;;;;;;5048303;28;20065;-72
2023/12/03 03:58:14;;;;;;;5.57;4.30;;;;;;;;;;5051169;28;20032;-72
2023/12/03 04:00:40;;;;;;;6.85;5.10;;;;;;;;;;5043873;28;20029;-72
2023/12/03 04:03:06;;;;;;;7.60;5.18;;;;;;;;;;5046654;28;20132;-73
2023/12/03 04:05:32;;;;;;;6.13;4.53;;;;;;;;;;5036915;28;20055;-72
2023/12/03 04:07:58;;;;;;;7.25;4.68;;;;;;;;;;5030935;28;20045;-72
2023/12/03 04:10:24;;;;;;;5.55;4.25;;;;;;;;;;5037670;28;20041;-72
2023/12/03 04:12:51;;;;;;;6.80;4.80;;;;;;;;;;5042950;28;20055;-72
2023/12/03 04:15:17;;;;;;;9.35;4.70;;;;;;;;;;5050501;28;20029;-71
2023/12/03 04:17:44;;;;;;;4.15;3.30;;;;;;;;;;5032535;28;20047;-71
2023/12/03 04:20:10;;;;;;;7.72;4.13;;;;;;;;;;5056285;28;20043;-72
2023/12/03 04:22:37;;;;;;;4.82;3.72;;;;;;;;;;5044724;28;20033;-72
2023/12/03 04:25:03;;;;;;;4.40;3.40;;;;;;;;;;5047299;28;20029;-73
2023/12/03 04:27:29;;;;;;;10.40;3.95;;;;;;;;;;5032854;28;20026;-72
2023/12/03 04:29:55;;;;;;;6.78;4.15;;;;;;;;;;5048227;28;20094;-72
2023/12/03 04:32:22;;;;;;;7.72;4.53;;;;;;;;;;5044410;28;20045;-72
2023/12/03 04:34:48;;;;;;;6.32;3.97;;;;;;;;;;5046496;28;20033;-72
2023/12/03 04:37:14;;;;;;;7.20;5.25;;;;;;;;;;5048745;28;20033;-72
2023/12/03 04:39:43;;;;;;;12.27;5.60;;;;;;;;;;5049499;28;20529;-72
2023/12/03 04:42:09;;;;;;;15.40;6.35;;;;;;;;;;5051311;28;20030;-73
2023/12/03 04:44:35;;;;;;;12.57;6.50;;;;;;;;;;5050259;28;20084;-72
2023/12/03 04:47:01;;;;;;;33.55;7.70;;;;;;;;;;5031299;28;20036;-73
2023/12/03 04:49:27;;;;;;;119.85;9.13;;;;;;;;;;5034088;28;20043;-73
2023/12/03 04:51:53;;;;;;;55.67;9.20;;;;;;;;;;5041627;28;20044;-74
2023/12/03 04:54:20;;;;;;;122.38;10.73;;;;;;;;;;5053270;28;20036;-73
2023/12/03 04:56:46;;;;;;;102.63;10.15;;;;;;;;;;5045318;28;20223;-73
2023/12/03 04:59:12;;;;;;;62.90;9.00;;;;;;;;;;5036574;28;20026;-73
2023/12/03 05:01:38;;;;;;;133.27;10.57;;;;;;;;;;5047964;28;20044;-72
2023/12/03 05:04:04;;;;;;;68.35;9.65;;;;;;;;;;5042032;28;20044;-74
2023/12/03 05:06:30;;;;;;;70.03;10.40;;;;;;;;;;5046970;28;20029;-73
2023/12/03 05:08:56;;;;;;;148.98;13.60;;;;;;;;;;5048785;28;20045;-72
2023/12/03 05:11:22;;;;;;;141.25;12.75;;;;;;;;;;5046492;28;20048;-72
2023/12/03 05:13:49;;;;;;;93.43;14.55;;;;;;;;;;5036097;28;20068;-72
2023/12/03 05:16:15;;;;;;;92.07;12.43;;;;;;;;;;5031257;28;20128;-72
2023/12/03 05:18:41;;;;;;;121.05;13.85;;;;;;;;;;5037790;28;20119;-72
2023/12/03 05:21:07;;;;;;;218.57;16.95;;;;;;;;;;5045549;28;20061;-73
2023/12/03 05:23:33;;;;;;;94.65;14.23;;;;;;;;;;5051297;28;20040;-72
2023/12/03 05:26:00;;;;;;;188.43;18.20;;;;;;;;;;5023696;28;20105;-74
2023/12/03 05:28:26;;;;;;;217.38;17.65;;;;;;;;;;5070560;28;20508;-72
2023/12/03 05:30:52;;;;;;;194.30;19.25;;;;;;;;;;5052321;28;20052;-74
2023/12/03 05:33:18;;;;;;;226.30;19.35;;;;;;;;;;5036088;28;20069;-72
2023/12/03 05:35:44;;;;;;;267.98;23.02;;;;;;;;;;5042504;28;20033;-72
2023/12/03 05:38:10;;;;;;;276.13;22.08;;;;;;;;;;5027100;28;20033;-73
2023/12/03 05:40:36;;;;;;;292.45;20.45;;;;;;;;;;5048430;28;20189;-74
2023/12/03 05:43:03;;;;;;;286.88;25.23;;;;;;;;;;5050763;28;20025;-73
2023/12/03 05:45:29;;;;;;;324.45;26.38;;;;;;;;;;5043260;28;20029;-72
2023/12/03 05:47:55;;;;;;;284.05;24.58;;;;;;;;;;5042528;28;20079;-74
2023/12/03 05:50:21;;;;;;;375.92;32.15;;;;;;;;;;5041237;28;20038;-73
2023/12/03 05:52:47;;;;;;;396.92;30.17;;;;;;;;;;5043757;28;20044;-72
2023/12/03 05:55:13;;;;;;;294.67;26.67;;;;;;;;;;5048134;28;20587;-73
2023/12/03 05:57:39;;;;;;;229.57;25.65;;;;;;;;;;5044684;28;20439;-73
2023/12/03 06:00:06;;;;;;;186.20;21.58;;;;;;;;;;5044422;28;20041;-73
2023/12/03 06:02:34;;;;;;;184.25;21.70;;;;;;;;;;5047916;28;20041;-75
2023/12/03 06:05:00;;;;;;;194.70;22.27;;;;;;;;;;5040284;28;20031;-73
2023/12/03 06:07:26;;;;;;;244.88;23.27;;;;;;;;;;5045794;28;20034;-74
2023/12/03 06:09:53;;;;;;;356.42;43.55;;;;;;;;;;5052739;28;20033;-73
2023/12/03 06:12:19;;;;;;;240.85;48.25;;;;;;;;;;5049725;28;20398;-73
2023/12/03 06:14:45;;;;;;;230.32;28.08;;;;;;;;;;5034399;28;20029;-74
2023/12/03 06:17:11;;;;;;;273.92;27.92;;;;;;;;;;5043953;28;20021;-75
2023/12/03 06:19:37;;;;;;;265.77;27.58;;;;;;;;;;5051089;28;20033;-72
2023/12/03 06:22:03;;;;;;;199.93;27.20;;;;;;;;;;5051917;28;20067;-72
2023/12/03 06:24:29;;;;;;;340.58;26.63;;;;;;;;;;5037289;28;20171;-72
2023/12/03 06:26:55;;;;;;;240.55;22.92;;;;;;;;;;5047289;28;20032;-72
2023/12/03 06:29:22;;;;;;;240.32;23.58;;;;;;;;;;5044078;28;20028;-74
2023/12/03 06:31:48;;;;;;;200.85;23.92;;;;;;;;;;5051361;28;20037;-74
2023/12/03 06:34:15;;;;;;;142.55;22.83;;;;;;;;;;5047108;28;20029;-76
2023/12/03 06:36:41;;;;;;;193.25;49.17;;;;;;;;;;5051705;28;20131;-71
2023/12/03 06:39:07;;;;;;;118.20;24.70;;;;;;;;;;5034406;28;20063;-73
2023/12/03 06:41:34;;;;;;;131.70;22.45;;;;;;;;;;5052356;28;20041;-74
2023/12/03 06:44:00;;;;;;;98.70;21.15;;;;;;;;;;5051708;28;20048;-74
2023/12/03 06:46:26;;;;;;;183.93;26.05;;;;;;;;;;5050705;28;20036;-74
2023/12/03 06:48:52;;;;;;;77.45;21.55;;;;;;;;;;5049816;28;20060;-74
2023/12/03 06:51:18;;;;;;;92.65;21.50;;;;;;;;;;5043904;28;20056;-74
2023/12/03 06:53:44;;;;;;;124.80;24.63;;;;;;;;;;5017789;28;20048;-75
2023/12/03 06:56:11;;;;;;;109.82;23.23;;;;;;;;;;5034509;28;20059;-74
2023/12/03 06:58:37;;;;;;;83.25;23.15;;;;;;;;;;5050512;28;20041;-74
2023/12/03 07:01:03;;;;;;;118.07;23.98;;;;;;;;;;5046101;28;20052;-75
2023/12/03 07:03:29;;;;;;;111.72;24.17;;;;;;;;;;5038850;28;20028;-75
2023/12/03 07:05:55;;;;;;;98.03;22.45;;;;;;;;;;5042728;28;20041;-74
2023/12/03 07:08:21;;;;;;;162.25;27.23;;;;;;;;;;5028284;28;20094;-73
2023/12/03 07:10:48;;;;;;;159.98;22.48;;;;;;;;;;5035923;28;20037;-72
2023/12/03 07:13:14;;;;;;;146.25;26.55;;;;;;;;;;5050035;28;20040;-73
2023/12/03 07:15:40;;;;;;;171.13;26.10;;;;;;;;;;5029571;28;20037;-73
2023/12/03 07:18:06;;;;;;;183.43;23.77;;;;;;;;;;5049213;28;20847;-73
2023/12/03 07:20:32;;;;;;;172.70;23.48;;;;;;;;;;5043304;28;20025;-73
2023/12/03 07:22:58;;;;;;;114.40;21.35;;;;;;;;;;5049612;28;20071;-73
2023/12/03 07:25:24;;;;;;;238.70;26.27;;;;;;;;;;5042927;28;20490;-73
2023/12/03 07:27:50;;;;;;;125.57;23.58;;;;;;;;;;5039857;28;20096;-73
2023/12/03 07:30:16;;;;;;;109.43;21.58;;;;;;;;;;5038616;28;20065;-74
2023/12/03 07:32:42;;;;;;;94.85;23.45;;;;;;;;;;5049448;28;20044;-74
2023/12/03 07:35:09;;;;;;;95.43;22.27;;;;;;;;;;5043797;28;20033;-72
2023/12/03 07:37:35;;;;;;;77.45;21.23;;;;;;;;;;5039807;28;20051;-72
2023/12/03 07:40:01;;;;;;;76.47;20.67;;;;;;;;;;5041569;28;20484;-72
2023/12/03 07:42:27;;;;;;;67.15;21.05;;;;;;;;;;5045454;28;20471;-74
2023/12/03 07:44:53;;;;;;;76.43;21.40;;;;;;;;;;5047141;28;20028;-80
2023/12/03 07:47:19;;;;;;;76.22;23.00;;;;;;;;;;5025818;28;20074;-74
2023/12/03 07:49:46;;;;;;;82.47;21.83;;;;;;;;;;5047452;28;20033;-75
2023/12/03 07:52:12;;;;;;;66.22;20.75;;;;;;;;;;5023494;28;20037;-82
2023/12/03 07:54:41;;;;;;;84.93;22.67;;;;;;;;;;5034257;28;20250;-79
2023/12/03 07:57:07;;;;;;;70.45;21.27;;;;;;;;;;5041743;28;20110;-77
2023/12/03 07:59:33;;;;;;;75.00;21.73;;;;;;;;;;5027380;28;20094;-77
2023/12/03 08:01:59;;;;;;;90.50;23.95;;;;;;;;;;5044870;28;20037;-74
2023/12/03 08:04:25;;;;;;;80.03;23.02;;;;;;;;;;5042331;28;20041;-72
2023/12/03 08:06:51;;;;;;;78.55;23.52;;;;;;;;;;5042629;28;20036;-72
2023/12/03 08:09:17;;;;;;;77.13;21.80;;;;;;;;;;5027074;28;20033;-74
2023/12/03 08:11:43;;;;;;;87.03;22.35;;;;;;;;;;5043729;28;20028;-73
2023/12/03 08:14:10;;;;;;;68.03;22.02;;;;;;;;;;5007584;28;20033;-73
2023/12/03 08:16:36;;;;;;;80.53;24.63;;;;;;;;;;5040281;28;20052;-78
2023/12/03 08:19:02;;;;;;;75.85;24.48;;;;;;;;;;5044180;28;20076;-74
2023/12/03 08:21:31;;;;;;;72.68;25.55;;;;;;;;;;5042518;28;20036;-74
2023/12/03 08:23:58;;;;;;;72.53;25.42;;;;;;;;;;5040705;28;20056;-76
2023/12/03 08:26:24;;;;;;;76.38;26.48;;;;;;;;;;5039729;28;20028;-73
2023/12/03 08:28:51;;;;;;;77.78;27.30;;;;;;;;;;5046064;28;20025;-78
2023/12/03 08:31:17;;;;;;;80.25;31.42;;;;;;;;;;5041357;28;20049;-77
2023/12/03 08:33:44;;;;;;;82.70;28.70;;;;;;;;;;5038889;28;20029;-79
2023/12/03 08:36:17;;;;;;;74.70;28.23;;;;;;;;;;5045232;28;20029;-77
2023/12/03 08:38:43;;;;;;;77.80;29.75;;;;;;;;;;5044899;28;20040;-77
2023/12/03 08:41:09;;;;;;;75.93;29.95;;;;;;;;;;5022486;28;20047;-73
2023/12/03 08:43:35;;;;;;;87.55;32.15;;;;;;;;;;5043071;28;20057;-74
2023/12/03 08:46:01;;;;;;;85.13;31.65;;;;;;;;;;5044204;28;20044;-75
2023/12/03 08:48:27;;;;;;;79.95;33.03;;;;;;;;;;5041750;28;20044;-75
2023/12/03 08:50:53;;;;;;;76.35;32.75;;;;;;;;;;5043348;28;20041;-75
2023/12/03 08:53:19;;;;;;;73.68;31.92;;;;;;;;;;5039161;28;20040;-74
2023/12/03 08:55:45;;;;;;;79.75;33.28;;;;;;;;;;5042325;28;20045;-76
2023/12/03 08:58:11;;;;;;;80.50;35.00;;;;;;;;;;5041833;28;20029;-81
2023/12/03 09:00:37;;;;;;;75.93;33.60;;;;;;;;;;5045009;28;20040;-78
2023/12/03 09:03:04;;;;;;;81.47;34.83;;;;;;;;;;5043104;28;20033;-75
2023/12/03 09:05:30;;;;;;;63.33;32.75;;;;;;;;;;5042412;28;20032;-74
2023/12/03 09:07:56;;;;;;;64.45;32.70;;;;;;;;;;5043232;28;20037;-77
2023/12/03 09:10:22;;;;;;;68.50;32.75;;;;;;;;;;5039910;28;20049;-75
2023/12/03 09:12:49;;;;;;;69.13;34.90;;;;;;;;;;5036744;28;20593;-75
2023/12/03 09:15:15;;;;;;;69.47;35.83;;;;;;;;;;5041967;28;20037;-74
2023/12/03 09:17:41;;;;;;;67.13;32.35;;;;;;;;;;5028516;28;20051;-73
2023/12/03 09:20:08;;;;;;;66.65;32.85;;;;;;;;;;5043873;28;20048;-75
2023/12/03 09:22:34;;;;;;;62.47;32.10;;;;;;;;;;5010103;28;20033;-73
2023/12/03 09:25:00;;;;;;;66.55;33.42;;;;;;;;;;5040746;28;20026;-73
2023/12/03 09:27:26;;;;;;;63.92;30.77;;;;;;;;;;5041462;28;20060;-72
2023/12/03 09:29:53;;;;;;;62.20;30.98;;;;;;;;;;5039417;28;20483;-74
2023/12/03 09:32:19;;;;;;;59.58;31.63;;;;;;;;;;5045826;28;20037;-72
2023/12/03 09:34:45;;;;;;;57.15;30.27;;;;;;;;;;5047743;28;20052;-74
2023/12/03 09:37:12;;;;;;;55.80;29.85;;;;;;;;;;5051425;28;20402;-72
2023/12/03 09:39:39;;;;;;;50.65;30.20;;;;;;;;;;5006431;28;20037;-74
2023/12/03 09:42:07;;;;;;;58.90;31.45;;;;;;;;;;5047078;28;20028;-73
2023/12/03 09:44:41;;;;;;;52.40;29.48;;;;;;;;;;5041880;28;20025;-72
2023/12/03 09:47:08;;;;;;;48.88;27.98;;;;;;;;;;5047225;28;20033;-71
2023/12/03 09:49:38;;;;;;;49.40;28.95;;;;;;;;;;5030488;28;20045;-73
2023/12/03 09:52:08;;;;;;;48.00;28.83;;;;;;;;;;5031782;28;20029;-74
2023/12/03 09:54:34;;;;;;;48.85;28.35;;;;;;;;;;5039538;28;20660;-74
2023/12/03 09:57:00;;;;;;;48.80;29.27;;;;;;;;;;5044079;28;20116;-74
2023/12/03 09:59:27;;;;;;;48.85;28.38;;;;;;;;;;5048140;28;20083;-72
2023/12/03 10:01:55;;;;;;;59.80;32.47;;;;;;;;;;5031349;28;20028;-77
2023/12/03 10:04:22;;;;;;;43.38;28.65;;;;;;;;;;5023116;28;20041;-76
2023/12/03 10:06:49;;;;;;;48.72;30.38;;;;;;;;;;5044009;28;20124;-76
2023/12/03 10:09:15;;;;;;;45.15;27.70;;;;;;;;;;5046757;28;20063;-73
2023/12/03 10:11:45;;;;;;;48.72;28.65;;;;;;;;;;5044840;28;20029;-75
2023/12/03 10:14:13;;;;;;;51.55;29.05;;;;;;;;;;5041990;28;20033;-74
2023/12/03 10:16:39;;;;;;;43.53;25.95;;;;;;;;;;5047953;28;20382;-75
2023/12/03 10:19:05;;;;;;;47.22;27.98;;;;;;;;;;5044265;28;20029;-74
2023/12/03 10:21:31;;;;;;;42.55;26.88;;;;;;;;;;5043936;28;20036;-75
2023/12/03 10:23:58;;;;;;;48.53;27.77;;;;;;;;;;5046799;28;20048;-74
2023/12/03 10:26:24;;;;;;;45.35;27.42;;;;;;;;;;5039958;28;20083;-73
2023/12/03 10:28:50;;;;;;;42.60;26.35;;;;;;;;;;5041758;28;20127;-74
2023/12/03 10:31:17;;;;;;;46.35;26.98;;;;;;;;;;5020456;28;20472;-78
2023/12/03 10:33:44;;;;;;;40.75;25.88;;;;;;;;;;5044113;28;20040;-76
2023/12/03 10:36:11;;;;;;;42.55;24.42;;;;;;;;;;5043577;28;20029;-81
2023/12/03 10:38:38;;;;;;;45.80;25.45;;;;;;;;;;5042722;28;20041;-82
2023/12/03 10:41:06;;;;;;;40.35;23.85;;;;;;;;;;5049342;28;20039;-82
2023/12/03 10:43:34;;;;;;;41.15;25.13;;;;;;;;;;5045829;28;20071;-77
2023/12/03 10:46:00;;;;;;;37.45;22.75;;;;;;;;;;5049525;28;20643;-77
2023/12/03 10:48:30;;;;;;;41.65;24.27;;;;;;;;;;5039022;28;20059;-74
2023/12/03 10:51:00;;;;;;;40.35;24.40;;;;;;;;;;5044336;28;20148;-79
2023/12/03 10:53:26;;;;;;;40.25;24.05;;;;;;;;;;5048389;28;20109;-73
2023/12/03 10:55:53;;;;;;;33.70;21.75;;;;;;;;;;5045533;28;20057;-82
2023/12/03 10:58:21;;;;;;;38.25;21.95;;;;;;;;;;5044640;28;20471;-79
2023/12/03 11:00:51;;;;;;;34.33;21.77;;;;;;;;;;5048926;28;20043;-77
2023/12/03 11:03:19;;;;;;;30.67;19.20;;;;;;;;;;5048320;28;20474;-78
2023/12/03 11:05:52;;;;;;;33.83;20.23;;;;;;;;;;5042615;28;20044;-74
2023/12/03 11:08:22;;;;;;;34.03;19.40;;;;;;;;;;5042066;28;20107;-77
2023/12/03 11:10:50;;;;;;;38.67;20.58;;;;;;;;;;5047907;28;20045;-80
2023/12/03 11:13:17;;;;;;;34.45;21.77;;;;;;;;;;5022686;28;20044;-78
2023/12/03 11:15:44;;;;;;;35.45;21.85;;;;;;;;;;5038583;28;20044;-79
2023/12/03 11:18:11;;;;;;;33.30;20.75;;;;;;;;;;5042074;28;20107;-78
2023/12/03 11:20:38;;;;;;;39.40;23.05;;;;;;;;;;5036282;28;20037;-76
2023/12/03 11:23:23;;;;;;;36.03;21.40;;;;;;;;;;5044932;28;20086;-77
2023/12/03 11:26:03;;;;;;;36.58;20.70;;;;;;;;;;5046815;28;20047;-76
2023/12/03 11:28:29;;;;;;;36.05;20.83;;;;;;;;;;5032537;28;20060;-77
2023/12/03 11:30:55;;;;;;;36.53;21.23;;;;;;;;;;5043653;28;20040;-77
2023/12/03 11:33:24;;;;;;;41.75;22.60;;;;;;;;;;5041245;28;20024;-78
2023/12/03 11:35:52;;;;;;;36.22;21.45;;;;;;;;;;5036675;28;20030;-79
2023/12/03 11:38:21;;;;;;;44.80;25.00;;;;;;;;;;5041111;28;20037;-78
2023/12/03 11:40:47;;;;;;;60.63;32.83;;;;;;;;;;5038821;28;20517;-75
2023/12/03 11:43:30;;;;;;;38.65;22.23;;;;;;;;;;5047711;28;20033;-79
2023/12/03 11:45:57;;;;;;;37.10;20.65;;;;;;;;;;5036916;28;20101;-78
2023/12/03 11:48:27;;;;;;;37.92;21.77;;;;;;;;;;5047547;28;20374;-78
2023/12/03 11:50:54;;;;;;;39.05;24.23;;;;;;;;;;5040126;28;20455;-77
2023/12/03 11:53:27;;;;;;;35.33;21.50;;;;;;;;;;5042651;28;20016;-76
2023/12/03 11:55:53;;;;;;;38.22;22.23;;;;;;;;;;5042061;28;20057;-77
2023/12/03 11:58:22;;;;;;;35.80;21.25;;;;;;;;;;5022547;28;20038;-77
2023/12/03 12:00:48;;;;;;;39.80;22.20;;;;;;;;;;5040468;28;20034;-77
2023/12/03 12:03:14;;;;;;;39.42;21.65;;;;;;;;;;5050177;28;20471;-82
2023/12/03 12:05:45;;;;;;;34.38;20.17;;;;;;;;;;5044285;28;20059;-84
2023/12/03 12:08:16;;;;;;;32.08;20.90;;;;;;;;;;5042275;28;20029;-74
2023/12/03 12:10:42;;;;;;;35.65;22.10;;;;;;;;;;5046060;28;20041;-73
2023/12/03 12:13:09;;;;;;;33.00;19.60;;;;;;;;;;5024860;28;20501;-80
2023/12/03 12:15:35;;;;;;;38.20;21.00;;;;;;;;;;5044442;28;20029;-76
2023/12/03 12:18:02;;;;;;;37.78;20.40;;;;;;;;;;5043394;28;20033;-76
2023/12/03 12:20:32;;;;;;;36.53;20.27;;;;;;;;;;5042319;28;21022;-76
2023/12/03 12:22:58;;;;;;;34.58;20.27;;;;;;;;;;5034822;28;20367;-73
2023/12/03 12:25:27;;;;;;;39.40;23.00;;;;;;;;;;5043517;28;20107;-73
2023/12/03 12:27:54;;;;;;;39.38;22.83;;;;;;;;;;5020847;28;20035;-72
2023/12/03 12:30:30;;;;;;;38.17;21.50;;;;;;;;;;5045892;28;20025;-73
2023/12/03 12:32:57;;;;;;;37.25;20.20;;;;;;;;;;5040196;28;20033;-72
2023/12/03 12:35:25;;;;;;;44.25;22.60;;;;;;;;;;5042082;28;20028;-72
2023/12/03 12:38:04;;;;;;;42.10;22.75;;;;;;;;;;5040257;28;20030;-76
2023/12/03 12:40:30;;;;;;;38.03;21.33;;;;;;;;;;5041907;28;20550;-73
2023/12/03 12:43:05;;;;;;;37.17;21.88;;;;;;;;;;5044032;28;20021;-75
2023/12/03 12:45:31;;;;;;;38.20;22.85;;;;;;;;;;5037463;28;20087;-76
2023/12/03 12:47:57;;;;;;;46.08;26.00;;;;;;;;;;5046964;28;20032;-77
2023/12/03 12:50:36;;;;;;;37.92;22.85;;;;;;;;;;5025713;28;20071;-74
2023/12/03 12:53:03;;;;;;;39.22;22.83;;;;;;;;;;5027090;28;20075;-77
2023/12/03 12:55:31;;;;;;;39.60;21.77;;;;;;;;;;5045799;28;20073;-77
2023/12/03 12:57:57;;;;;;;41.10;22.45;;;;;;;;;;5044320;28;20126;-75
2023/12/03 13:00:23;;;;;;;35.35;21.67;;;;;;;;;;5045661;28;20032;-73
2023/12/03 13:02:49;;;;;;;42.28;23.10;;;;;;;;;;5039882;28;20033;-74
2023/12/03 13:05:15;;;;;;;41.08;22.27;;;;;;;;;;5042859;28;20060;-74
2023/12/03 13:07:42;;;;;;;41.95;23.75;;;;;;;;;;5043572;28;20041;-76
2023/12/03 13:10:08;;;;;;;39.58;21.27;;;;;;;;;;5048304;28;20033;-73
2023/12/03 13:12:34;;;;;;;42.40;21.63;;;;;;;;;;5049178;28;20045;-75
2023/12/03 13:15:00;;;;;;;33.42;19.58;;;;;;;;;;5044353;28;20513;-72
2023/12/03 13:17:27;;;;;;;41.28;19.90;;;;;;;;;;5050359;28;20040;-70
2023/12/03 13:19:53;;;;;;;40.88;19.60;;;;;;;;;;5021778;28;20040;-72
2023/12/03 13:22:19;;;;;;;40.45;20.67;;;;;;;;;;5018134;28;20084;-74
2023/12/03 13:24:46;;;;;;;37.38;19.65;;;;;;;;;;5049670;28;20475;-70
2023/12/03 13:27:13;;;;;;;38.20;19.52;;;;;;;;;;5050489;28;20033;-72
2023/12/03 13:29:39;;;;;;;31.40;17.30;;;;;;;;;;5043733;28;20057;-70
2023/12/03 13:32:05;;;;;;;29.42;16.73;;;;;;;;;;5030182;28;20041;-71
2023/12/03 13:34:31;;;;;;;30.85;16.63;;;;;;;;;;5048552;28;20036;-70
2023/12/03 13:36:57;;;;;;;31.98;18.48;;;;;;;;;;5045163;28;20017;-73
2023/12/03 13:39:24;;;;;;;29.88;16.25;;;;;;;;;;5045882;28;20029;-73
2023/12/03 13:41:50;;;;;;;29.30;17.00;;;;;;;;;;5047448;28;20513;-72
2023/12/03 13:44:16;;;;;;;34.88;18.55;;;;;;;;;;5042845;28;20471;-76
2023/12/03 13:46:42;;;;;;;33.53;15.73;;;;;;;;;;5044144;28;20034;-73
2023/12/03 13:49:08;;;;;;;27.98;15.40;;;;;;;;;;5049881;28;20033;-75
2023/12/03 13:51:34;;;;;;;31.50;16.60;;;;;;;;;;5041548;28;20065;-74
2023/12/03 13:54:00;;;;;;;40.03;15.45;;;;;;;;;;5049238;28;20025;-74
2023/12/03 13:56:26;;;;;;;28.33;15.63;;;;;;;;;;5047205;28;20045;-74
2023/12/03 13:58:52;;;;;;;34.75;15.68;;;;;;;;;;5041511;28;20041;-72
2023/12/03 14:01:18;;;;;;;42.58;21.52;;;;;;;;;;5025600;28;20033;-73
2023/12/03 14:03:44;;;;;;;32.65;17.25;;;;;;;;;;5045334;28;20050;-72
2023/12/03 14:06:11;;;;;;;35.58;18.55;;;;;;;;;;5045300;28;20102;-76
2023/12/03 14:08:37;;;;;;;29.60;16.80;;;;;;;;;;5045732;28;20045;-71
2023/12/03 14:11:03;;;;;;;34.08;16.40;;;;;;;;;;5047049;28;20038;-73
2023/12/03 14:13:29;;;;;;;33.17;17.10;;;;;;;;;;5029258;28;20029;-72
2023/12/03 14:15:57;;;;;;;30.70;16.60;;;;;;;;;;5044105;28;20025;-74
2023/12/03 14:18:23;;;;;;;30.10;16.20;;;;;;;;;;5047857;28;20052;-68
2023/12/03 14:20:49;;;;;;;30.02;17.48;;;;;;;;;;5044088;28;20041;-74